sensor_id;sensor_type;location;lat;lon;timestamp;pressure;altitude;pressure_sealevel;temperature;humidity
61359;BME280;47228;46.762;23.598;2022-12-05T00:01:17;98012.02;;;1.43;87.06
61359;BME280;47228;46.762;23.598;2022-12-05T00:03:45;98007.33;;;1.45;86.92
61359;BME280;47228;46.762;23.598;2022-12-05T00:06:13;98006.92;;;1.46;86.88
61359;BME280;47228;46.762;23.598;2022-12-05T00:08:41;98010.51;;;1.48;86.82
61359;BME280;47228;46.762;23.598;2022-12-05T00:11:11;98012.95;;;1.51;86.54
61359;BME280;47228;46.762;23.598;2022-12-05T00:13:39;98011.17;;;1.49;86.34
61359;BME280;47228;46.762;23.598;2022-12-05T00:16:08;98009.43;;;1.49;86.68
61359;BME280;47228;46.762;23.598;2022-12-05T00:18:36;98010.59;;;1.50;86.57
61359;BME280;47228;46.762;23.598;2022-12-05T00:21:05;98012.17;;;1.50;86.46
61359;BME280;47228;46.762;23.598;2022-12-05T00:23:33;98017.48;;;1.49;86.43
61359;BME280;47228;46.762;23.598;2022-12-05T00:26:02;98020.16;;;1.46;86.34
61359;BME280;47228;46.762;23.598;2022-12-05T00:28:33;98022.19;;;1.42;86.33
61359;BME280;47228;46.762;23.598;2022-12-05T00:31:02;98022.67;;;1.41;86.60
61359;BME280;47228;46.762;23.598;2022-12-05T00:33:30;98022.64;;;1.39;86.60
61359;BME280;47228;46.762;23.598;2022-12-05T00:36:02;98024.32;;;1.40;86.75
61359;BME280;47228;46.762;23.598;2022-12-05T00:38:30;98027.94;;;1.40;86.41
61359;BME280;47228;46.762;23.598;2022-12-05T00:41:02;98031.45;;;1.38;86.25
61359;BME280;47228;46.762;23.598;2022-12-05T00:43:30;98033.59;;;1.37;86.69
61359;BME280;47228;46.762;23.598;2022-12-05T00:46:01;98032.40;;;1.37;86.58
61359;BME280;47228;46.762;23.598;2022-12-05T00:48:30;98029.74;;;1.35;86.40
61359;BME280;47228;46.762;23.598;2022-12-05T00:51:02;98033.47;;;1.35;86.49
61359;BME280;47228;46.762;23.598;2022-12-05T00:53:30;98029.95;;;1.33;86.60
61359;BME280;47228;46.762;23.598;2022-12-05T00:56:11;98030.05;;;1.32;86.62
61359;BME280;47228;46.762;23.598;2022-12-05T00:58:39;98030.43;;;1.31;86.41
61359;BME280;47228;46.762;23.598;2022-12-05T01:01:08;98027.65;;;1.31;86.47
61359;BME280;47228;46.762;23.598;2022-12-05T01:03:37;98031.20;;;1.33;86.57
61359;BME280;47228;46.762;23.598;2022-12-05T01:06:05;98033.85;;;1.34;86.53
61359;BME280;47228;46.762;23.598;2022-12-05T01:08:33;98029.36;;;1.34;86.28
61359;BME280;47228;46.762;23.598;2022-12-05T01:11:02;98028.89;;;1.31;86.19
61359;BME280;47228;46.762;23.598;2022-12-05T01:13:31;98032.45;;;1.30;86.60
61359;BME280;47228;46.762;23.598;2022-12-05T01:15:59;98031.55;;;1.30;86.84
61359;BME280;47228;46.762;23.598;2022-12-05T01:18:27;98028.63;;;1.32;86.85
61359;BME280;47228;46.762;23.598;2022-12-05T01:20:55;98024.75;;;1.35;86.98
61359;BME280;47228;46.762;23.598;2022-12-05T01:23:23;98025.35;;;1.38;86.77
61359;BME280;47228;46.762;23.598;2022-12-05T01:25:51;98026.11;;;1.39;86.75
61359;BME280;47228;46.762;23.598;2022-12-05T01:28:19;98025.15;;;1.40;86.71
61359;BME280;47228;46.762;23.598;2022-12-05T01:30:48;98023.33;;;1.44;87.11
61359;BME280;47228;46.762;23.598;2022-12-05T01:33:16;98022.74;;;1.44;86.77
61359;BME280;47228;46.762;23.598;2022-12-05T01:35:44;98017.65;;;1.45;86.84
61359;BME280;47228;46.762;23.598;2022-12-05T01:38:12;98021.45;;;1.45;86.86
61359;BME280;47228;46.762;23.598;2022-12-05T01:40:40;98023.83;;;1.46;86.63
61359;BME280;47228;46.762;23.598;2022-12-05T01:43:16;98024.35;;;1.46;86.70
61359;BME280;47228;46.762;23.598;2022-12-05T01:45:44;98022.00;;;1.45;86.62
61359;BME280;47228;46.762;23.598;2022-12-05T01:48:17;98018.00;;;1.45;86.96
61359;BME280;47228;46.762;23.598;2022-12-05T01:50:46;98017.17;;;1.48;87.33
61359;BME280;47228;46.762;23.598;2022-12-05T01:53:15;98009.98;;;1.53;87.40
61359;BME280;47228;46.762;23.598;2022-12-05T01:55:43;98004.96;;;1.57;87.22
61359;BME280;47228;46.762;23.598;2022-12-05T01:58:11;98002.98;;;1.59;86.86
61359;BME280;47228;46.762;23.598;2022-12-05T02:00:39;98000.58;;;1.61;86.58
61359;BME280;47228;46.762;23.598;2022-12-05T02:03:08;97999.17;;;1.61;86.27
61359;BME280;47228;46.762;23.598;2022-12-05T02:05:37;97995.36;;;1.61;86.13
61359;BME280;47228;46.762;23.598;2022-12-05T02:08:06;97997.20;;;1.60;85.99
61359;BME280;47228;46.762;23.598;2022-12-05T02:10:38;97999.77;;;1.56;86.05
61359;BME280;47228;46.762;23.598;2022-12-05T02:27:12;98010.98;;;1.55;86.67
61359;BME280;47228;46.762;23.598;2022-12-05T02:40:20;98011.60;;;1.63;87.34
61359;BME280;47228;46.762;23.598;2022-12-05T02:42:52;98011.30;;;1.68;87.33
61359;BME280;47228;46.762;23.598;2022-12-05T02:45:23;98011.95;;;1.73;87.04
61359;BME280;47228;46.762;23.598;2022-12-05T02:47:52;98009.52;;;1.73;86.40
61359;BME280;47228;46.762;23.598;2022-12-05T02:50:22;98011.05;;;1.69;86.30
61359;BME280;47228;46.762;23.598;2022-12-05T02:52:52;98009.75;;;1.66;86.30
61359;BME280;47228;46.762;23.598;2022-12-05T02:55:20;98011.42;;;1.65;86.76
61359;BME280;47228;46.762;23.598;2022-12-05T02:57:51;98010.36;;;1.65;86.92
61359;BME280;47228;46.762;23.598;2022-12-05T03:00:19;98011.15;;;1.66;86.68
61359;BME280;47228;46.762;23.598;2022-12-05T03:02:50;98008.91;;;1.63;86.39
61359;BME280;47228;46.762;23.598;2022-12-05T03:08:08;98003.55;;;1.59;86.35
61359;BME280;47228;46.762;23.598;2022-12-05T03:10:38;98002.82;;;1.59;86.44
61359;BME280;47228;46.762;23.598;2022-12-05T03:13:10;98007.80;;;1.58;86.33
61359;BME280;47228;46.762;23.598;2022-12-05T03:15:41;98008.65;;;1.56;86.57
61359;BME280;47228;46.762;23.598;2022-12-05T03:18:16;98011.12;;;1.56;86.83
61359;BME280;47228;46.762;23.598;2022-12-05T03:20:47;98010.34;;;1.57;87.11
61359;BME280;47228;46.762;23.598;2022-12-05T03:23:20;98010.46;;;1.60;87.18
61359;BME280;47228;46.762;23.598;2022-12-05T03:25:56;98009.41;;;1.60;86.90
61359;BME280;47228;46.762;23.598;2022-12-05T03:28:30;98011.31;;;1.60;86.97
61359;BME280;47228;46.762;23.598;2022-12-05T03:31:06;98011.12;;;1.60;87.17
61359;BME280;47228;46.762;23.598;2022-12-05T03:33:38;98019.58;;;1.63;87.24
61359;BME280;47228;46.762;23.598;2022-12-05T03:36:19;98019.98;;;1.67;87.36
61359;BME280;47228;46.762;23.598;2022-12-05T03:38:50;98018.80;;;1.71;87.30
61359;BME280;47228;46.762;23.598;2022-12-05T03:41:25;98012.05;;;1.74;87.16
61359;BME280;47228;46.762;23.598;2022-12-05T03:43:58;98011.52;;;1.78;87.27
61359;BME280;47228;46.762;23.598;2022-12-05T03:46:28;98013.92;;;1.83;87.32
61359;BME280;47228;46.762;23.598;2022-12-05T03:51:43;98019.38;;;1.83;86.82
61359;BME280;47228;46.762;23.598;2022-12-05T03:54:17;98025.06;;;1.81;86.90
61359;BME280;47228;46.762;23.598;2022-12-05T03:56:58;98021.23;;;1.81;87.03
61359;BME280;47228;46.762;23.598;2022-12-05T03:59:33;98021.83;;;1.83;87.04
61359;BME280;47228;46.762;23.598;2022-12-05T04:02:10;98028.23;;;1.83;86.92
61359;BME280;47228;46.762;23.598;2022-12-05T04:05:15;98028.89;;;1.86;87.12
61359;BME280;47228;46.762;23.598;2022-12-05T04:07:34;98025.25;;;1.89;87.43
61359;BME280;47228;46.762;23.598;2022-12-05T04:10:06;98027.22;;;1.93;87.17
61359;BME280;47228;46.762;23.598;2022-12-05T04:12:36;98027.06;;;1.95;87.13
61359;BME280;47228;46.762;23.598;2022-12-05T04:15:10;98024.72;;;1.96;87.01
61359;BME280;47228;46.762;23.598;2022-12-05T04:17:47;98024.02;;;1.96;86.92
61359;BME280;47228;46.762;23.598;2022-12-05T04:20:21;98028.11;;;1.95;86.74
61359;BME280;47228;46.762;23.598;2022-12-05T04:23:09;98028.26;;;1.91;86.37
61359;BME280;47228;46.762;23.598;2022-12-05T04:31:10;98033.25;;;1.75;86.46
61359;BME280;47228;46.762;23.598;2022-12-05T04:33:54;98030.59;;;1.72;86.46
61359;BME280;47228;46.762;23.598;2022-12-05T04:41:32;98019.67;;;1.68;86.77
61359;BME280;47228;46.762;23.598;2022-12-05T04:44:02;98018.19;;;1.67;86.37
61359;BME280;47228;46.762;23.598;2022-12-05T04:46:32;98024.02;;;1.64;86.34
61359;BME280;47228;46.762;23.598;2022-12-05T04:49:00;98018.89;;;1.63;86.62
61359;BME280;47228;46.762;23.598;2022-12-05T04:51:30;98017.36;;;1.63;86.63
61359;BME280;47228;46.762;23.598;2022-12-05T04:54:02;98021.89;;;1.63;86.80
61359;BME280;47228;46.762;23.598;2022-12-05T04:56:32;98022.35;;;1.62;86.95
61359;BME280;47228;46.762;23.598;2022-12-05T04:59:00;98018.81;;;1.60;86.78
61359;BME280;47228;46.762;23.598;2022-12-05T05:04:06;98025.50;;;1.59;86.99
61359;BME280;47228;46.762;23.598;2022-12-05T05:06:36;98028.41;;;1.58;87.01
61359;BME280;47228;46.762;23.598;2022-12-05T05:09:05;98023.32;;;1.56;87.20
61359;BME280;47228;46.762;23.598;2022-12-05T05:11:33;98024.48;;;1.55;87.18
61359;BME280;47228;46.762;23.598;2022-12-05T05:14:02;98030.58;;;1.55;87.21
61359;BME280;47228;46.762;23.598;2022-12-05T05:16:34;98030.29;;;1.52;87.21
61359;BME280;47228;46.762;23.598;2022-12-05T05:19:03;98034.05;;;1.51;87.36
61359;BME280;47228;46.762;23.598;2022-12-05T05:21:40;98037.39;;;1.51;87.31
61359;BME280;47228;46.762;23.598;2022-12-05T05:24:09;98041.34;;;1.51;87.51
61359;BME280;47228;46.762;23.598;2022-12-05T05:26:38;98044.92;;;1.52;87.65
61359;BME280;47228;46.762;23.598;2022-12-05T05:29:06;98045.52;;;1.56;88.10
61359;BME280;47228;46.762;23.598;2022-12-05T05:31:38;98042.15;;;1.63;88.36
61359;BME280;47228;46.762;23.598;2022-12-05T05:34:06;98041.12;;;1.71;88.54
61359;BME280;47228;46.762;23.598;2022-12-05T05:36:36;98042.45;;;1.78;88.17
61359;BME280;47228;46.762;23.598;2022-12-05T05:39:05;98041.52;;;1.83;88.19
61359;BME280;47228;46.762;23.598;2022-12-05T05:41:35;98042.63;;;1.86;87.90
61359;BME280;47228;46.762;23.598;2022-12-05T05:44:03;98043.05;;;1.89;87.69
61359;BME280;47228;46.762;23.598;2022-12-05T05:46:32;98046.80;;;1.93;87.51
61359;BME280;47228;46.762;23.598;2022-12-05T05:49:01;98047.63;;;1.96;87.52
61359;BME280;47228;46.762;23.598;2022-12-05T05:51:29;98046.77;;;1.98;87.38
61359;BME280;47228;46.762;23.598;2022-12-05T05:53:57;98050.70;;;1.99;87.46
61359;BME280;47228;46.762;23.598;2022-12-05T05:56:26;98052.91;;;1.99;87.33
61359;BME280;47228;46.762;23.598;2022-12-05T05:58:57;98054.11;;;2.00;87.32
61359;BME280;47228;46.762;23.598;2022-12-05T06:01:26;98057.95;;;1.98;87.34
61359;BME280;47228;46.762;23.598;2022-12-05T06:03:54;98052.56;;;1.97;87.34
61359;BME280;47228;46.762;23.598;2022-12-05T06:06:22;98053.71;;;1.98;87.15
61359;BME280;47228;46.762;23.598;2022-12-05T06:08:50;98052.81;;;2.00;87.19
61359;BME280;47228;46.762;23.598;2022-12-05T06:11:19;98054.20;;;2.02;87.23
61359;BME280;47228;46.762;23.598;2022-12-05T06:13:56;98053.91;;;2.06;87.22
61359;BME280;47228;46.762;23.598;2022-12-05T06:16:24;98058.64;;;2.08;87.28
61359;BME280;47228;46.762;23.598;2022-12-05T06:18:52;98061.21;;;2.09;87.27
61359;BME280;47228;46.762;23.598;2022-12-05T06:21:20;98057.16;;;2.11;87.26
61359;BME280;47228;46.762;23.598;2022-12-05T06:23:48;98057.68;;;2.11;86.90
61359;BME280;47228;46.762;23.598;2022-12-05T06:26:18;98058.04;;;2.11;87.01
61359;BME280;47228;46.762;23.598;2022-12-05T06:28:46;98058.73;;;2.11;86.87
61359;BME280;47228;46.762;23.598;2022-12-05T06:31:18;98060.59;;;2.12;87.12
61359;BME280;47228;46.762;23.598;2022-12-05T06:33:46;98061.08;;;2.14;86.87
61359;BME280;47228;46.762;23.598;2022-12-05T06:36:16;98063.18;;;2.18;86.84
61359;BME280;47228;46.762;23.598;2022-12-05T06:38:44;98064.20;;;2.23;86.74
61359;BME280;47228;46.762;23.598;2022-12-05T06:41:15;98062.73;;;2.26;86.54
61359;BME280;47228;46.762;23.598;2022-12-05T06:43:43;98065.34;;;2.28;86.36
61359;BME280;47228;46.762;23.598;2022-12-05T06:46:12;98066.25;;;2.29;86.25
61359;BME280;47228;46.762;23.598;2022-12-05T06:48:40;98068.00;;;2.31;86.32
61359;BME280;47228;46.762;23.598;2022-12-05T06:51:09;98070.24;;;2.32;86.38
61359;BME280;47228;46.762;23.598;2022-12-05T06:53:38;98069.52;;;2.32;86.42
61359;BME280;47228;46.762;23.598;2022-12-05T06:56:06;98072.73;;;2.33;86.38
61359;BME280;47228;46.762;23.598;2022-12-05T06:58:39;98074.33;;;2.35;86.38
61359;BME280;47228;46.762;23.598;2022-12-05T07:01:13;98074.61;;;2.38;86.08
61359;BME280;47228;46.762;23.598;2022-12-05T07:04:00;98078.52;;;2.39;85.92
61359;BME280;47228;46.762;23.598;2022-12-05T07:06:28;98079.86;;;2.40;85.71
61359;BME280;47228;46.762;23.598;2022-12-05T07:08:56;98083.65;;;2.41;85.61
61359;BME280;47228;46.762;23.598;2022-12-05T07:11:24;98081.19;;;2.41;85.88
61359;BME280;47228;46.762;23.598;2022-12-05T07:13:52;98088.04;;;2.40;85.58
61359;BME280;47228;46.762;23.598;2022-12-05T07:16:20;98089.52;;;2.39;85.52
61359;BME280;47228;46.762;23.598;2022-12-05T07:18:48;98090.92;;;2.39;85.31
61359;BME280;47228;46.762;23.598;2022-12-05T07:21:16;98094.63;;;2.41;85.65
61359;BME280;47228;46.762;23.598;2022-12-05T07:23:45;98097.71;;;2.44;85.70
61359;BME280;47228;46.762;23.598;2022-12-05T07:26:14;98102.54;;;2.47;85.59
61359;BME280;47228;46.762;23.598;2022-12-05T07:28:42;98099.84;;;2.48;85.17
61359;BME280;47228;46.762;23.598;2022-12-05T07:31:11;98101.96;;;2.45;84.89
61359;BME280;47228;46.762;23.598;2022-12-05T07:33:39;98104.67;;;2.44;84.93
61359;BME280;47228;46.762;23.598;2022-12-05T07:36:08;98103.16;;;2.43;85.09
61359;BME280;47228;46.762;23.598;2022-12-05T07:38:36;98100.81;;;2.42;85.32
61359;BME280;47228;46.762;23.598;2022-12-05T07:41:08;98100.30;;;2.42;85.01
61359;BME280;47228;46.762;23.598;2022-12-05T07:43:40;98099.61;;;2.42;84.89
61359;BME280;47228;46.762;23.598;2022-12-05T07:46:08;98099.77;;;2.42;84.81
61359;BME280;47228;46.762;23.598;2022-12-05T07:48:38;98103.92;;;2.42;84.82
61359;BME280;47228;46.762;23.598;2022-12-05T07:51:07;98106.21;;;2.45;84.96
61359;BME280;47228;46.762;23.598;2022-12-05T07:53:36;98104.66;;;2.49;85.14
61359;BME280;47228;46.762;23.598;2022-12-05T07:56:05;98106.73;;;2.51;84.89
61359;BME280;47228;46.762;23.598;2022-12-05T07:58:33;98111.23;;;2.52;84.66
61359;BME280;47228;46.762;23.598;2022-12-05T08:01:06;98110.89;;;2.51;84.61
61359;BME280;47228;46.762;23.598;2022-12-05T08:03:34;98112.33;;;2.51;84.50
61359;BME280;47228;46.762;23.598;2022-12-05T08:06:04;98111.83;;;2.49;84.51
61359;BME280;47228;46.762;23.598;2022-12-05T08:08:33;98110.83;;;2.48;84.73
61359;BME280;47228;46.762;23.598;2022-12-05T08:11:04;98110.59;;;2.49;84.81
61359;BME280;47228;46.762;23.598;2022-12-05T08:13:32;98110.45;;;2.52;85.00
61359;BME280;47228;46.762;23.598;2022-12-05T08:16:02;98114.27;;;2.57;85.16
61359;BME280;47228;46.762;23.598;2022-12-05T08:18:30;98114.58;;;2.61;85.32
61359;BME280;47228;46.762;23.598;2022-12-05T08:21:08;98118.30;;;2.65;85.47
61359;BME280;47228;46.762;23.598;2022-12-05T08:23:37;98119.02;;;2.67;85.68
61359;BME280;47228;46.762;23.598;2022-12-05T08:26:15;98119.48;;;2.69;85.98
61359;BME280;47228;46.762;23.598;2022-12-05T08:28:43;98120.21;;;2.71;85.72
61359;BME280;47228;46.762;23.598;2022-12-05T08:31:13;98118.14;;;2.73;85.67
61359;BME280;47228;46.762;23.598;2022-12-05T08:33:41;98119.45;;;2.74;85.67
61359;BME280;47228;46.762;23.598;2022-12-05T08:36:11;98121.53;;;2.74;85.75
61359;BME280;47228;46.762;23.598;2022-12-05T08:38:40;98123.25;;;2.73;85.65
61359;BME280;47228;46.762;23.598;2022-12-05T08:41:08;98119.88;;;2.69;85.90
61359;BME280;47228;46.762;23.598;2022-12-05T08:43:36;98120.51;;;2.68;86.08
61359;BME280;47228;46.762;23.598;2022-12-05T08:46:04;98120.95;;;2.65;85.88
61359;BME280;47228;46.762;23.598;2022-12-05T08:48:33;98120.43;;;2.61;86.05
61359;BME280;47228;46.762;23.598;2022-12-05T08:51:09;98116.04;;;2.53;85.83
61359;BME280;47228;46.762;23.598;2022-12-05T08:53:38;98111.98;;;2.49;86.39
61359;BME280;47228;46.762;23.598;2022-12-05T08:56:11;98115.29;;;2.49;87.08
61359;BME280;47228;46.762;23.598;2022-12-05T08:58:40;98118.17;;;2.48;86.72
61359;BME280;47228;46.762;23.598;2022-12-05T09:01:17;98117.27;;;2.44;86.69
61359;BME280;47228;46.762;23.598;2022-12-05T09:03:46;98109.36;;;2.41;86.68
61359;BME280;47228;46.762;23.598;2022-12-05T09:08:43;98104.47;;;2.47;87.63
61359;BME280;47228;46.762;23.598;2022-12-05T09:11:12;98103.83;;;2.50;87.83
61359;BME280;47228;46.762;23.598;2022-12-05T09:13:40;98104.52;;;2.54;87.78
61359;BME280;47228;46.762;23.598;2022-12-05T09:16:09;98106.77;;;2.56;87.62
61359;BME280;47228;46.762;23.598;2022-12-05T09:18:38;98110.38;;;2.60;87.63
61359;BME280;47228;46.762;23.598;2022-12-05T09:24:03;98104.51;;;2.67;87.85
61359;BME280;47228;46.762;23.598;2022-12-05T09:26:31;98102.80;;;2.68;87.79
61359;BME280;47228;46.762;23.598;2022-12-05T09:28:59;98101.23;;;2.70;87.97
61359;BME280;47228;46.762;23.598;2022-12-05T09:31:28;98096.04;;;2.73;87.88
61359;BME280;47228;46.762;23.598;2022-12-05T09:33:57;98096.50;;;2.76;87.77
61359;BME280;47228;46.762;23.598;2022-12-05T09:36:26;98089.62;;;2.79;87.62
61359;BME280;47228;46.762;23.598;2022-12-05T09:38:54;98084.60;;;2.82;87.44
61359;BME280;47228;46.762;23.598;2022-12-05T09:47:04;98069.50;;;2.91;87.02
61359;BME280;47228;46.762;23.598;2022-12-05T09:49:39;98066.27;;;2.94;87.25
61359;BME280;47228;46.762;23.598;2022-12-05T09:52:12;98062.17;;;2.95;87.02
61359;BME280;47228;46.762;23.598;2022-12-05T09:54:49;98052.13;;;2.95;86.75
61359;BME280;47228;46.762;23.598;2022-12-05T09:57:19;98051.94;;;2.98;86.94
61359;BME280;47228;46.762;23.598;2022-12-05T09:59:59;98047.39;;;3.04;87.56
61359;BME280;47228;46.762;23.598;2022-12-05T10:02:31;98044.67;;;3.09;87.66
61359;BME280;47228;46.762;23.598;2022-12-05T10:15:36;98049.79;;;3.22;87.41
61359;BME280;47228;46.762;23.598;2022-12-05T10:20:55;98046.77;;;3.27;87.22
61359;BME280;47228;46.762;23.598;2022-12-05T10:26:12;98045.33;;;3.33;87.63
61359;BME280;47228;46.762;23.598;2022-12-05T10:28:56;98045.99;;;3.37;88.03
61359;BME280;47228;46.762;23.598;2022-12-05T10:31:28;98046.01;;;3.41;88.05
61359;BME280;47228;46.762;23.598;2022-12-05T10:34:02;98042.58;;;3.44;87.66
61359;BME280;47228;46.762;23.598;2022-12-05T10:36:30;98046.08;;;3.46;87.33
61359;BME280;47228;46.762;23.598;2022-12-05T10:38:59;98044.33;;;3.46;86.83
61359;BME280;47228;46.762;23.598;2022-12-05T10:41:27;98041.24;;;3.43;86.85
61359;BME280;47228;46.762;23.598;2022-12-05T10:43:55;98043.13;;;3.42;87.16
61359;BME280;47228;46.762;23.598;2022-12-05T10:46:25;98040.92;;;3.43;87.28
61359;BME280;47228;46.762;23.598;2022-12-05T10:48:53;98038.06;;;3.45;87.30
61359;BME280;47228;46.762;23.598;2022-12-05T10:51:23;98036.95;;;3.50;87.43
61359;BME280;47228;46.762;23.598;2022-12-05T10:53:52;98033.69;;;3.53;87.02
61359;BME280;47228;46.762;23.598;2022-12-05T10:59:04;98030.50;;;3.56;86.77
61359;BME280;47228;46.762;23.598;2022-12-05T11:01:33;98028.79;;;3.53;86.96
61359;BME280;47228;46.762;23.598;2022-12-05T11:04:09;98027.27;;;3.53;87.09
61359;BME280;47228;46.762;23.598;2022-12-05T11:06:49;98019.53;;;3.53;87.41
61359;BME280;47228;46.762;23.598;2022-12-05T11:09:22;98015.84;;;3.55;87.42
61359;BME280;47228;46.762;23.598;2022-12-05T11:11:59;98012.17;;;3.55;87.15
61359;BME280;47228;46.762;23.598;2022-12-05T11:14:28;98012.25;;;3.56;87.50
61359;BME280;47228;46.762;23.598;2022-12-05T11:17:21;98011.59;;;3.59;87.53
61359;BME280;47228;46.762;23.598;2022-12-05T11:19:52;98011.83;;;3.62;87.55
61359;BME280;47228;46.762;23.598;2022-12-05T11:22:29;98010.84;;;3.66;87.61
61359;BME280;47228;46.762;23.598;2022-12-05T11:24:59;98010.98;;;3.68;87.37
61359;BME280;47228;46.762;23.598;2022-12-05T11:27:44;98010.92;;;3.69;87.02
61359;BME280;47228;46.762;23.598;2022-12-05T11:32:48;98005.98;;;3.67;86.59
61359;BME280;47228;46.762;23.598;2022-12-05T11:35:29;97998.90;;;3.64;86.72
61359;BME280;47228;46.762;23.598;2022-12-05T11:37:57;97995.83;;;3.63;86.89
61359;BME280;47228;46.762;23.598;2022-12-05T11:40:34;97989.09;;;3.62;87.09
61359;BME280;47228;46.762;23.598;2022-12-05T11:43:31;97989.98;;;3.64;87.65
61359;BME280;47228;46.762;23.598;2022-12-05T11:48:44;97987.91;;;3.69;87.26
61359;BME280;47228;46.762;23.598;2022-12-05T11:56:38;97981.53;;;3.80;87.84
61359;BME280;47228;46.762;23.598;2022-12-05T12:09:19;97962.78;;;3.94;87.60
61359;BME280;47228;46.762;23.598;2022-12-05T12:11:58;97960.27;;;3.97;87.64
61359;BME280;47228;46.762;23.598;2022-12-05T12:17:22;97958.59;;;4.00;87.28
61359;BME280;47228;46.762;23.598;2022-12-05T12:33:22;97952.55;;;4.07;87.62
61359;BME280;47228;46.762;23.598;2022-12-05T12:51:19;97943.05;;;3.96;87.78
61359;BME280;47228;46.762;23.598;2022-12-05T12:56:32;97942.60;;;3.93;87.78
61359;BME280;47228;46.762;23.598;2022-12-05T13:01:54;97945.87;;;3.92;88.14
61359;BME280;47228;46.762;23.598;2022-12-05T13:07:13;97944.47;;;3.84;88.08
61359;BME280;47228;46.762;23.598;2022-12-05T13:09:51;97942.29;;;3.80;87.85
61359;BME280;47228;46.762;23.598;2022-12-05T13:12:22;97943.75;;;3.73;87.98
61359;BME280;47228;46.762;23.598;2022-12-05T13:14:54;97940.98;;;3.69;88.24
61359;BME280;47228;46.762;23.598;2022-12-05T13:17:24;97942.57;;;3.65;88.47
61359;BME280;47228;46.762;23.598;2022-12-05T13:19:52;97945.86;;;3.64;88.57
61359;BME280;47228;46.762;23.598;2022-12-05T13:22:24;97947.41;;;3.64;88.89
61359;BME280;47228;46.762;23.598;2022-12-05T13:24:54;97945.30;;;3.66;89.08
61359;BME280;47228;46.762;23.598;2022-12-05T13:27:24;97946.80;;;3.71;89.12
61359;BME280;47228;46.762;23.598;2022-12-05T13:29:55;97946.61;;;3.74;88.94
61359;BME280;47228;46.762;23.598;2022-12-05T13:32:37;97945.86;;;3.77;89.12
61359;BME280;47228;46.762;23.598;2022-12-05T13:35:08;97942.52;;;3.81;89.12
61359;BME280;47228;46.762;23.598;2022-12-05T13:37:43;97945.16;;;3.84;89.42
61359;BME280;47228;46.762;23.598;2022-12-05T13:40:36;97942.28;;;3.89;88.94
61359;BME280;47228;46.762;23.598;2022-12-05T13:43:29;97943.56;;;3.85;88.65
61359;BME280;47228;46.762;23.598;2022-12-05T13:48:29;97941.20;;;3.86;89.30
61359;BME280;47228;46.762;23.598;2022-12-05T13:56:20;97947.55;;;3.91;89.14
61359;BME280;47228;46.762;23.598;2022-12-05T13:58:51;97945.52;;;3.90;88.60
61359;BME280;47228;46.762;23.598;2022-12-05T14:03:58;97942.89;;;3.92;89.19
61359;BME280;47228;46.762;23.598;2022-12-05T14:09:50;97948.15;;;3.93;88.97
61359;BME280;47228;46.762;23.598;2022-12-05T14:17:40;97948.52;;;4.01;89.15
61359;BME280;47228;46.762;23.598;2022-12-05T14:25:32;97953.11;;;4.03;88.87
61359;BME280;47228;46.762;23.598;2022-12-05T14:30:54;97945.52;;;3.97;88.94
61359;BME280;47228;46.762;23.598;2022-12-05T14:33:28;97947.08;;;3.96;89.14
61359;BME280;47228;46.762;23.598;2022-12-05T14:35:56;97951.16;;;3.94;89.38
61359;BME280;47228;46.762;23.598;2022-12-05T14:38:31;97955.55;;;3.93;89.71
61359;BME280;47228;46.762;23.598;2022-12-05T14:44:29;97952.48;;;3.94;89.70
61359;BME280;47228;46.762;23.598;2022-12-05T14:47:03;97948.05;;;3.93;89.57
61359;BME280;47228;46.762;23.598;2022-12-05T14:52:09;97949.24;;;3.95;89.62
61359;BME280;47228;46.762;23.598;2022-12-05T14:54:39;97949.67;;;3.96;89.55
61359;BME280;47228;46.762;23.598;2022-12-05T14:57:11;97950.85;;;3.99;89.80
61359;BME280;47228;46.762;23.598;2022-12-05T15:02:21;97952.36;;;4.05;89.86
61359;BME280;47228;46.762;23.598;2022-12-05T15:04:51;97952.30;;;4.07;90.03
61359;BME280;47228;46.762;23.598;2022-12-05T15:07:26;97948.70;;;4.10;89.84
61359;BME280;47228;46.762;23.598;2022-12-05T15:10:00;97946.92;;;4.09;89.39
61359;BME280;47228;46.762;23.598;2022-12-05T15:12:31;97947.37;;;4.04;89.37
61359;BME280;47228;46.762;23.598;2022-12-05T15:17:44;97941.47;;;3.98;90.00
61359;BME280;47228;46.762;23.598;2022-12-05T15:20:14;97940.73;;;3.96;89.82
61359;BME280;47228;46.762;23.598;2022-12-05T15:22:42;97939.11;;;3.95;89.71
61359;BME280;47228;46.762;23.598;2022-12-05T15:27:54;97937.70;;;3.95;89.99
61359;BME280;47228;46.762;23.598;2022-12-05T15:30:22;97938.73;;;3.95;89.80
61359;BME280;47228;46.762;23.598;2022-12-05T15:32:50;97933.80;;;3.94;90.20
61359;BME280;47228;46.762;23.598;2022-12-05T15:35:25;97936.65;;;3.93;90.33
61359;BME280;47228;46.762;23.598;2022-12-05T15:37:56;97938.91;;;3.95;90.74
61359;BME280;47228;46.762;23.598;2022-12-05T15:40:25;97938.72;;;3.99;90.89
61359;BME280;47228;46.762;23.598;2022-12-05T15:42:54;97940.35;;;4.00;90.32
61359;BME280;47228;46.762;23.598;2022-12-05T15:45:23;97938.84;;;3.98;89.67
61359;BME280;47228;46.762;23.598;2022-12-05T15:47:53;97938.80;;;3.94;89.67
61359;BME280;47228;46.762;23.598;2022-12-05T15:58:24;97932.49;;;3.94;90.16
61359;BME280;47228;46.762;23.598;2022-12-05T16:00:55;97931.70;;;3.93;90.33
61359;BME280;47228;46.762;23.598;2022-12-05T16:03:37;97929.27;;;3.93;90.41
61359;BME280;47228;46.762;23.598;2022-12-05T16:06:10;97932.81;;;3.93;90.42
61359;BME280;47228;46.762;23.598;2022-12-05T16:08:42;97928.45;;;3.93;90.22
61359;BME280;47228;46.762;23.598;2022-12-05T16:11:11;97928.88;;;3.94;90.14
61359;BME280;47228;46.762;23.598;2022-12-05T16:13:59;97931.61;;;3.94;90.10
61359;BME280;47228;46.762;23.598;2022-12-05T16:16:29;97926.05;;;3.94;90.14
61359;BME280;47228;46.762;23.598;2022-12-05T16:19:02;97923.90;;;3.94;90.29
61359;BME280;47228;46.762;23.598;2022-12-05T16:27:02;97916.51;;;3.89;90.30
61359;BME280;47228;46.762;23.598;2022-12-05T16:29:33;97915.66;;;3.87;90.15